createdAt,value
2023-02-08T00:00:02.891Z,29.70
2023-02-08T00:01:02.897Z,28.00
2023-02-08T00:02:02.832Z,28.30
2023-02-08T00:03:02.798Z,28.70
2023-02-08T00:04:02.850Z,30.70
2023-02-08T00:05:02.742Z,29.00
2023-02-08T00:06:02.709Z,30.20
2023-02-08T00:07:02.684Z,28.70
2023-02-08T00:08:02.667Z,29.00
2023-02-08T00:09:02.614Z,30.40
2023-02-08T00:10:02.609Z,31.10
2023-02-08T00:11:02.578Z,31.50
2023-02-08T00:12:02.533Z,32.40
2023-02-08T00:13:02.507Z,29.00
2023-02-08T00:14:02.491Z,27.00
2023-02-08T00:15:02.444Z,26.10
2023-02-08T00:16:02.517Z,27.10
2023-02-08T00:17:02.423Z,28.20
2023-02-08T00:18:02.367Z,26.60
2023-02-08T00:19:02.330Z,26.80
2023-02-08T00:20:02.320Z,28.00
2023-02-08T00:21:02.270Z,27.80
2023-02-08T00:22:02.243Z,28.10
2023-02-08T00:23:02.208Z,27.50
2023-02-08T00:24:02.178Z,27.20
2023-02-08T00:25:02.149Z,27.70
2023-02-08T00:26:02.126Z,27.10
2023-02-08T00:27:02.089Z,27.30
2023-02-08T00:28:04.482Z,27.90
2023-02-08T00:29:02.064Z,26.70
2023-02-08T00:30:02.004Z,27.90
2023-02-08T00:31:02.103Z,26.80
2023-02-08T00:32:02.142Z,28.50
2023-02-08T00:33:01.928Z,27.00
2023-02-08T00:34:01.881Z,28.00
2023-02-08T00:35:01.848Z,27.00
2023-02-08T00:36:01.827Z,27.40
2023-02-08T00:37:01.794Z,29.20
2023-02-08T00:38:01.764Z,26.70
2023-02-08T00:39:01.731Z,27.60
2023-02-08T00:40:01.733Z,26.60
2023-02-08T00:41:01.677Z,27.00
2023-02-08T00:42:01.649Z,26.50
2023-02-08T00:43:01.624Z,30.20
2023-02-08T00:44:01.590Z,27.50
2023-02-08T00:45:01.577Z,28.40
2023-02-08T00:46:01.585Z,27.90
2023-02-08T00:47:01.493Z,27.80
2023-02-08T00:48:01.473Z,27.80
2023-02-08T00:49:01.465Z,28.60
2023-02-08T00:50:01.404Z,29.00
2023-02-08T00:51:01.374Z,31.40
2023-02-08T00:52:01.346Z,28.60
2023-02-08T00:53:01.324Z,29.50
2023-02-08T00:54:01.284Z,29.60
2023-02-08T00:55:01.257Z,32.10
2023-02-08T00:56:01.232Z,28.80
2023-02-08T00:57:01.199Z,29.20
2023-02-08T00:58:01.168Z,28.60
2023-02-08T00:59:01.141Z,32.40
2023-02-08T01:00:01.109Z,27.90
2023-02-08T01:01:01.157Z,29.50
2023-02-08T01:02:01.094Z,31.50
2023-02-08T01:03:01.020Z,31.70
2023-02-08T01:04:00.999Z,30.80
2023-02-08T01:05:00.983Z,31.10
2023-02-08T01:06:00.930Z,32.20
2023-02-08T01:07:00.900Z,32.20
2023-02-08T01:08:00.876Z,32.10
2023-02-08T01:09:00.864Z,34.00
2023-02-08T01:10:00.840Z,31.90
2023-02-08T01:11:00.787Z,30.50
2023-02-08T01:12:00.755Z,29.20
2023-02-08T01:13:00.725Z,29.30
2023-02-08T01:14:00.694Z,29.90
2023-02-08T01:15:00.671Z,30.10
2023-02-08T01:16:00.654Z,32.30
2023-02-08T01:17:00.611Z,31.80
2023-02-08T01:18:00.578Z,30.70
2023-02-08T01:19:00.548Z,28.70
2023-02-08T01:20:00.540Z,29.50
2023-02-08T01:21:00.512Z,30.30
2023-02-08T01:22:00.461Z,29.20
2023-02-08T01:23:00.428Z,29.90
2023-02-08T01:24:00.403Z,29.00
2023-02-08T01:25:00.370Z,30.30
2023-02-08T01:26:00.340Z,29.50
2023-02-08T01:27:00.312Z,28.90
2023-02-08T01:28:00.333Z,31.60
2023-02-08T01:29:00.265Z,30.00
2023-02-08T01:30:00.218Z,28.10
2023-02-08T01:31:00.219Z,28.70
2023-02-08T01:32:00.163Z,29.10
2023-02-08T01:33:00.140Z,28.10
2023-02-08T01:34:00.157Z,27.10
2023-02-08T01:35:00.106Z,28.50
2023-02-08T01:36:00.046Z,28.50
2023-02-08T01:37:00.033Z,27.20
2023-02-08T01:37:59.986Z,27.30
2023-02-08T01:38:59.950Z,28.40
2023-02-08T01:39:59.924Z,26.60
2023-02-08T01:40:59.900Z,27.40
2023-02-08T01:41:59.865Z,28.90
2023-02-08T01:42:59.840Z,26.80
2023-02-08T01:43:59.822Z,27.40
2023-02-08T01:44:59.779Z,27.70
2023-02-08T01:45:59.813Z,29.00
2023-02-08T01:46:59.724Z,26.10
2023-02-08T01:47:59.683Z,27.40
2023-02-08T01:48:59.659Z,28.20
2023-02-08T01:49:59.633Z,26.30
2023-02-08T01:50:59.599Z,27.00
2023-02-08T01:51:59.564Z,28.10
2023-02-08T01:52:59.560Z,25.10
2023-02-08T01:53:59.507Z,26.10
2023-02-08T01:54:59.480Z,26.80
2023-02-08T01:55:59.455Z,26.30
2023-02-08T01:56:59.422Z,25.60
2023-02-08T01:57:59.391Z,28.20
2023-02-08T01:58:59.364Z,26.00
2023-02-08T01:59:59.373Z,25.10
2023-02-08T02:00:59.333Z,26.50
2023-02-08T02:01:59.274Z,27.00
2023-02-08T02:02:59.245Z,26.40
2023-02-08T02:03:59.206Z,25.70
2023-02-08T02:04:59.185Z,26.30
2023-02-08T02:05:59.151Z,26.40
2023-02-08T02:06:59.128Z,27.20
2023-02-08T02:07:59.098Z,28.30
2023-02-08T02:08:59.087Z,28.00
2023-02-08T02:09:59.030Z,26.50
2023-02-08T02:10:59.002Z,25.80
2023-02-08T02:11:58.975Z,27.30
2023-02-08T02:12:58.944Z,27.60
2023-02-08T02:13:58.917Z,28.20
2023-02-08T02:14:58.883Z,26.00
2023-02-08T02:15:58.852Z,27.20
2023-02-08T02:16:58.829Z,29.90
2023-02-08T02:17:58.790Z,27.60
2023-02-08T02:18:58.763Z,27.10
2023-02-08T02:19:58.731Z,28.50
2023-02-08T02:20:58.718Z,27.90
2023-02-08T02:21:58.676Z,27.70
2023-02-08T02:22:58.658Z,28.60
2023-02-08T02:23:58.614Z,27.60
2023-02-08T02:24:58.607Z,26.70
2023-02-08T02:25:58.552Z,29.00
2023-02-08T02:26:58.532Z,28.60
2023-02-08T02:27:58.537Z,28.60
2023-02-08T02:28:58.468Z,27.20
2023-02-08T02:29:58.449Z,29.80
2023-02-08T02:30:58.518Z,27.20
2023-02-08T02:31:58.426Z,28.10
2023-02-08T02:32:58.348Z,28.80
2023-02-08T02:33:58.316Z,28.10
2023-02-08T02:34:58.288Z,28.90
2023-02-08T02:35:58.301Z,26.10
2023-02-08T02:36:58.243Z,25.70
2023-02-08T02:37:58.204Z,25.50
2023-02-08T02:38:58.171Z,26.20
2023-02-08T02:39:58.139Z,25.90
2023-02-08T02:40:58.136Z,26.00
2023-02-08T02:41:58.080Z,25.90
2023-02-08T02:42:58.051Z,27.50
2023-02-08T02:43:58.019Z,26.00
2023-02-08T02:44:58.015Z,24.10
2023-02-08T02:45:58.067Z,26.60
2023-02-08T02:46:57.936Z,25.30
2023-02-08T02:47:57.901Z,25.30
2023-02-08T02:48:57.881Z,23.50
2023-02-08T02:49:57.845Z,25.70
2023-02-08T02:50:57.818Z,26.60
2023-02-08T02:51:57.796Z,24.70
2023-02-08T02:52:57.760Z,26.10
2023-02-08T02:53:57.737Z,26.30
2023-02-08T02:54:57.696Z,26.80
2023-02-08T02:55:57.668Z,26.50
2023-02-08T02:56:57.663Z,24.80
2023-02-08T02:57:57.610Z,25.30
2023-02-08T02:58:57.580Z,26.90
2023-02-08T02:59:57.547Z,24.70
2023-02-08T03:00:57.577Z,27.10
2023-02-08T03:01:57.490Z,24.80
2023-02-08T03:02:57.459Z,25.70
2023-02-08T03:03:57.463Z,27.70
2023-02-08T03:04:57.428Z,26.30
2023-02-08T03:05:57.381Z,24.70
2023-02-08T03:06:57.344Z,25.50
2023-02-08T03:07:57.314Z,24.40
2023-02-08T03:08:57.289Z,26.40
2023-02-08T03:09:57.251Z,26.10
2023-02-08T03:10:57.225Z,24.70
2023-02-08T03:11:57.189Z,23.90
2023-02-08T03:12:57.182Z,23.30
2023-02-08T03:13:57.127Z,25.60
2023-02-08T03:14:57.104Z,25.90
2023-02-08T03:15:57.070Z,23.70
2023-02-08T03:16:57.115Z,25.40
2023-02-08T03:17:57.015Z,25.80
2023-02-08T03:18:56.986Z,24.80
2023-02-08T03:19:56.956Z,25.40
2023-02-08T03:20:56.930Z,25.50
2023-02-08T03:21:56.899Z,24.40
2023-02-08T03:22:56.866Z,25.00
2023-02-08T03:23:56.847Z,24.00
2023-02-08T03:24:56.813Z,25.00
2023-02-08T03:25:56.797Z,25.30
2023-02-08T03:26:56.752Z,26.80
2023-02-08T03:27:56.755Z,24.50
2023-02-08T03:28:56.747Z,27.40
2023-02-08T03:29:56.656Z,26.90
2023-02-08T03:30:56.743Z,27.50
2023-02-08T03:31:56.713Z,25.40
2023-02-08T03:32:56.569Z,25.90
2023-02-08T03:33:56.533Z,25.20
2023-02-08T03:34:56.505Z,25.60
2023-02-08T03:35:56.477Z,25.70
2023-02-08T03:36:56.456Z,24.50
2023-02-08T03:37:56.421Z,25.00
2023-02-08T03:38:56.390Z,26.20
2023-02-08T03:39:56.356Z,26.90
2023-02-08T03:40:56.338Z,26.00
2023-02-08T03:41:56.306Z,25.20
2023-02-08T03:42:56.274Z,23.90
2023-02-08T03:43:56.240Z,26.40
2023-02-08T03:44:56.230Z,25.70
2023-02-08T03:45:56.225Z,25.50
2023-02-08T03:46:56.153Z,27.80
2023-02-08T03:47:56.116Z,25.90
2023-02-08T03:48:56.092Z,25.50
2023-02-08T03:49:56.061Z,25.30
2023-02-08T03:50:56.032Z,26.10
2023-02-08T03:51:55.999Z,28.10
2023-02-08T03:52:55.974Z,25.50
2023-02-08T03:53:55.937Z,25.80
2023-02-08T03:54:55.911Z,24.60
2023-02-08T03:55:55.885Z,25.50
2023-02-08T03:56:55.852Z,25.50
2023-02-08T03:57:55.813Z,26.30
2023-02-08T03:58:55.789Z,25.40
2023-02-08T03:59:55.769Z,24.80
2023-02-08T04:00:55.751Z,26.20
2023-02-08T04:01:55.698Z,24.60
2023-02-08T04:02:55.671Z,25.20
2023-02-08T04:03:55.639Z,24.20
2023-02-08T04:04:55.620Z,25.30
2023-02-08T04:05:55.603Z,24.40
2023-02-08T04:06:55.550Z,24.90
2023-02-08T04:07:55.549Z,25.60
2023-02-08T04:08:55.493Z,24.50
2023-02-08T04:09:55.456Z,24.70
2023-02-08T04:10:55.434Z,24.40
2023-02-08T04:11:55.400Z,24.50
2023-02-08T04:12:55.370Z,25.20
2023-02-08T04:13:55.334Z,24.00
2023-02-08T04:14:55.312Z,26.30
2023-02-08T04:15:55.356Z,26.30
2023-02-08T04:16:55.272Z,24.50
2023-02-08T04:17:55.221Z,25.50
2023-02-08T04:18:55.188Z,26.00
2023-02-08T04:19:55.162Z,23.90
2023-02-08T04:20:55.130Z,25.80
2023-02-08T04:21:55.096Z,26.60
2023-02-08T04:22:55.072Z,26.20
2023-02-08T04:23:55.043Z,25.70
2023-02-08T04:24:55.010Z,27.30
2023-02-08T04:25:54.976Z,24.10
2023-02-08T04:26:54.947Z,25.70
2023-02-08T04:27:54.962Z,25.60
2023-02-08T04:28:54.893Z,25.50
2023-02-08T04:29:54.861Z,26.80
2023-02-08T04:30:54.987Z,26.70
2023-02-08T04:31:54.868Z,26.00
2023-02-08T04:32:54.796Z,24.70
2023-02-08T04:33:54.738Z,25.80
2023-02-08T04:34:54.709Z,24.80
2023-02-08T04:35:54.678Z,26.50
2023-02-08T04:36:54.656Z,24.90
2023-02-08T04:37:54.626Z,27.80
2023-02-08T04:38:54.592Z,23.90
2023-02-08T04:39:54.561Z,27.40
2023-02-08T04:40:54.538Z,26.20
2023-02-08T04:41:54.510Z,27.40
2023-02-08T04:42:54.476Z,25.60
2023-02-08T04:43:54.463Z,26.60
2023-02-08T04:44:54.628Z,24.20
2023-02-08T04:45:54.392Z,25.30
2023-02-08T04:46:54.357Z,27.80
2023-02-08T04:47:54.323Z,26.80
2023-02-08T04:48:54.328Z,25.90
2023-02-08T04:49:54.274Z,26.40
2023-02-08T04:50:54.242Z,27.90
2023-02-08T04:51:54.215Z,26.60
2023-02-08T04:52:54.179Z,26.80
2023-02-08T04:53:54.147Z,27.60
2023-02-08T04:54:54.120Z,25.40
2023-02-08T04:55:54.109Z,26.90
2023-02-08T04:56:54.057Z,26.40
2023-02-08T04:57:54.027Z,26.40
2023-02-08T04:58:53.999Z,29.30
2023-02-08T04:59:53.966Z,27.10
2023-02-08T05:00:53.940Z,28.40
2023-02-08T05:02:53.881Z,26.50
2023-02-08T05:03:53.863Z,28.20
2023-02-08T05:04:53.911Z,27.80
2023-02-08T05:05:53.787Z,25.60
2023-02-08T05:06:53.752Z,26.60
2023-02-08T05:07:53.726Z,27.50
2023-02-08T05:08:53.704Z,28.00
2023-02-08T05:09:53.688Z,28.20
2023-02-08T05:10:53.634Z,28.40
2023-02-08T05:11:53.605Z,26.20
2023-02-08T05:12:53.575Z,26.60
2023-02-08T05:13:53.545Z,28.90
2023-02-08T05:14:53.507Z,26.50
2023-02-08T05:15:53.507Z,29.30
2023-02-08T05:16:53.449Z,29.20
2023-02-08T05:17:53.426Z,26.10
2023-02-08T05:18:53.404Z,27.90
2023-02-08T05:19:53.364Z,25.20
2023-02-08T05:20:53.346Z,25.20
2023-02-08T05:21:53.308Z,25.40
2023-02-08T05:22:53.273Z,24.40
2023-02-08T05:23:53.255Z,24.00
2023-02-08T05:24:53.211Z,24.70
2023-02-08T05:25:53.179Z,23.20
2023-02-08T05:26:53.149Z,25.50
2023-02-08T05:27:53.263Z,25.40
2023-02-08T05:28:53.097Z,25.00
2023-02-08T05:29:53.062Z,24.70
2023-02-08T05:30:53.043Z,24.90
2023-02-08T05:31:53.085Z,24.20
2023-02-08T05:32:52.970Z,23.70
2023-02-08T05:33:52.974Z,24.80
2023-02-08T05:34:52.911Z,27.30
2023-02-08T05:35:52.910Z,25.70
2023-02-08T05:36:52.872Z,24.50
2023-02-08T05:37:52.822Z,27.60
2023-02-08T05:38:52.788Z,26.60
2023-02-08T05:39:52.758Z,24.80
2023-02-08T05:40:52.726Z,24.50
2023-02-08T05:41:52.704Z,24.50
2023-02-08T05:42:52.666Z,24.30
2023-02-08T05:43:52.639Z,27.10
2023-02-08T05:44:52.608Z,23.80
2023-02-08T05:45:52.576Z,26.00
2023-02-08T05:46:52.587Z,27.30
2023-02-08T05:47:52.516Z,26.50
2023-02-08T05:48:52.488Z,27.70
2023-02-08T05:49:52.459Z,30.00
2023-02-08T05:50:52.429Z,29.40
2023-02-08T05:51:52.398Z,29.90
2023-02-08T05:52:52.391Z,27.30
2023-02-08T05:53:52.339Z,25.50
2023-02-08T05:54:52.305Z,25.00
2023-02-08T05:55:52.274Z,29.60
2023-02-08T05:56:52.252Z,24.90
2023-02-08T05:57:52.220Z,25.30
2023-02-08T05:58:52.194Z,27.20
2023-02-08T05:59:52.159Z,25.60
2023-02-08T06:00:52.158Z,24.20
2023-02-08T06:01:52.107Z,25.20
2023-02-08T06:02:52.084Z,24.30
2023-02-08T06:03:52.396Z,23.20
2023-02-08T06:04:52.006Z,23.70
2023-02-08T06:05:51.982Z,24.70
2023-02-08T06:06:51.950Z,24.30
2023-02-08T06:07:51.917Z,24.00
2023-02-08T06:08:51.908Z,24.70
2023-02-08T06:09:51.855Z,28.70
2023-02-08T06:10:51.839Z,22.50
2023-02-08T06:11:51.798Z,23.20
2023-02-08T06:12:51.772Z,24.60
2023-02-08T06:13:51.737Z,24.20
2023-02-08T06:14:51.705Z,24.10
2023-02-08T06:15:51.671Z,23.60
2023-02-08T06:16:51.775Z,24.70
2023-02-08T06:17:51.619Z,23.30
2023-02-08T06:18:51.591Z,23.90
2023-02-08T06:19:51.561Z,22.60
2023-02-08T06:20:51.529Z,24.00
2023-02-08T06:21:51.492Z,27.30
2023-02-08T06:22:51.468Z,22.10
2023-02-08T06:23:51.440Z,24.40
2023-02-08T06:24:51.428Z,23.40
2023-02-08T06:25:51.374Z,25.10
2023-02-08T06:26:51.342Z,26.90
2023-02-08T06:27:51.364Z,26.40
2023-02-08T06:28:51.285Z,25.70
2023-02-08T06:29:51.253Z,23.70
2023-02-08T06:30:51.226Z,26.80
2023-02-08T06:31:51.332Z,26.70
2023-02-08T06:32:51.189Z,23.50
2023-02-08T06:33:51.153Z,24.30
2023-02-08T06:34:51.108Z,24.40
2023-02-08T06:35:51.084Z,24.60
2023-02-08T06:36:51.048Z,24.00
2023-02-08T06:37:51.018Z,24.40
2023-02-08T06:38:51.390Z,23.60
2023-02-08T06:39:50.962Z,25.20
2023-02-08T06:40:50.949Z,27.50
2023-02-08T06:41:50.895Z,29.80
2023-02-08T06:42:50.868Z,34.70
2023-02-08T06:43:50.837Z,33.10
2023-02-08T06:44:55.138Z,30.00
2023-02-08T06:45:50.816Z,29.60
2023-02-08T06:46:50.754Z,31.20
2023-02-08T06:47:50.716Z,33.90
2023-02-08T06:48:50.685Z,33.10
2023-02-08T06:49:50.667Z,31.60
2023-02-08T06:50:50.622Z,32.10
2023-02-08T06:51:50.597Z,35.20
2023-02-08T06:52:50.571Z,34.30
2023-02-08T06:53:50.539Z,34.70
2023-02-08T06:54:50.511Z,28.00
2023-02-08T06:55:50.479Z,28.80
2023-02-08T06:56:50.485Z,27.90
2023-02-08T06:57:50.414Z,27.40
2023-02-08T06:58:50.404Z,26.30
2023-02-08T06:59:50.367Z,26.40
2023-02-08T07:00:50.430Z,26.70
2023-02-08T07:01:50.300Z,25.20
2023-02-08T07:02:50.260Z,23.60
2023-02-08T07:03:50.239Z,27.70
2023-02-08T07:04:50.216Z,25.30
2023-02-08T07:06:04.094Z,23.80
2023-02-08T07:06:50.149Z,24.50
2023-02-08T07:07:50.114Z,25.40
2023-02-08T07:08:50.086Z,24.70
2023-02-08T07:09:50.049Z,25.10
2023-02-08T07:10:50.033Z,26.10
2023-02-08T07:11:49.991Z,27.30
2023-02-08T07:12:49.995Z,26.80
2023-02-08T07:13:49.939Z,27.10
2023-02-08T07:14:49.909Z,25.80
2023-02-08T07:15:49.881Z,27.10
2023-02-08T07:16:49.903Z,27.40
2023-02-08T07:17:49.810Z,27.20
2023-02-08T07:18:49.800Z,29.30
2023-02-08T07:19:49.752Z,27.40
2023-02-08T07:20:49.724Z,28.60
2023-02-08T07:21:49.693Z,28.70
2023-02-08T07:22:49.666Z,30.30
2023-02-08T07:23:49.634Z,28.40
2023-02-08T07:24:49.607Z,29.00
2023-02-08T07:25:49.576Z,27.50
2023-02-08T07:26:49.544Z,31.00
2023-02-08T07:27:49.580Z,29.10
2023-02-08T07:28:49.510Z,33.10
2023-02-08T07:29:49.449Z,29.60
2023-02-08T07:30:49.445Z,29.60
2023-02-08T07:31:49.454Z,30.60
2023-02-08T07:32:49.364Z,30.50
2023-02-08T07:33:49.332Z,28.00
2023-02-08T07:35:49.275Z,29.50
2023-02-08T07:36:49.251Z,29.20
2023-02-08T07:37:49.215Z,27.80
2023-02-08T07:38:49.183Z,29.20
2023-02-08T07:39:49.160Z,28.90
2023-02-08T07:40:49.129Z,29.50
2023-02-08T07:41:49.098Z,29.90
2023-02-08T07:42:49.066Z,31.80
2023-02-08T07:43:49.040Z,33.00
2023-02-08T07:44:49.030Z,31.10
2023-02-08T07:45:49.008Z,30.20
2023-02-08T07:46:48.962Z,30.40
2023-02-08T07:47:48.914Z,33.50
2023-02-08T07:48:48.885Z,30.30
2023-02-08T07:49:48.852Z,29.50
2023-02-08T07:50:48.830Z,31.00
2023-02-08T07:51:48.793Z,31.00
2023-02-08T07:52:48.769Z,26.90
2023-02-08T07:53:48.749Z,26.50
2023-02-08T07:54:48.701Z,26.10
2023-02-08T07:55:48.681Z,26.00
2023-02-08T07:56:48.656Z,23.90
2023-02-08T07:57:48.618Z,24.60
2023-02-08T07:58:48.590Z,27.50
2023-02-08T07:59:48.575Z,24.70
2023-02-08T08:00:48.543Z,25.00
2023-02-08T08:01:48.562Z,25.20
2023-02-08T08:02:48.465Z,24.00
2023-02-08T08:03:48.505Z,25.00
2023-02-08T08:04:48.746Z,23.00
2023-02-08T08:05:50.684Z,24.40
2023-02-08T08:06:48.343Z,22.00
2023-02-08T08:07:48.321Z,23.50
2023-02-08T08:08:48.284Z,23.50
2023-02-08T08:09:48.259Z,21.90
2023-02-08T08:10:48.223Z,22.40
2023-02-08T08:11:48.212Z,23.60
2023-02-08T08:12:48.164Z,23.30
2023-02-08T08:13:48.150Z,22.60
2023-02-08T08:14:48.116Z,23.00
2023-02-08T08:15:48.083Z,21.80
2023-02-08T08:16:48.080Z,23.50
2023-02-08T08:17:48.019Z,23.50
2023-02-08T08:18:48.001Z,23.50
2023-02-08T08:19:47.953Z,20.90
2023-02-08T08:20:47.926Z,21.10
2023-02-08T08:21:47.900Z,24.80
2023-02-08T08:22:47.865Z,21.70
2023-02-08T08:23:47.845Z,24.00
2023-02-08T08:24:47.808Z,20.80
2023-02-08T08:25:47.780Z,21.10
2023-02-08T08:26:47.749Z,24.50
2023-02-08T08:27:47.817Z,22.00
2023-02-08T08:28:47.731Z,22.70
2023-02-08T08:29:47.659Z,21.10
2023-02-08T08:30:47.694Z,21.00
2023-02-08T08:31:47.651Z,21.20
2023-02-08T08:32:47.593Z,21.60
2023-02-08T08:33:47.540Z,24.50
2023-02-08T08:34:47.506Z,21.00
2023-02-08T08:35:47.498Z,23.40
2023-02-08T08:36:47.445Z,24.00
2023-02-08T08:37:47.426Z,21.80
2023-02-08T08:38:47.385Z,23.50
2023-02-08T08:39:47.355Z,23.40
2023-02-08T08:40:47.326Z,22.50
2023-02-08T08:41:47.301Z,20.60
2023-02-08T08:42:47.270Z,20.50
2023-02-08T08:43:47.265Z,20.60
2023-02-08T08:44:47.206Z,22.00
2023-02-08T08:45:47.181Z,22.00
2023-02-08T08:46:47.150Z,23.10
2023-02-08T08:47:47.125Z,22.80
2023-02-08T08:48:47.122Z,22.50
2023-02-08T08:49:47.067Z,23.80
2023-02-08T08:50:47.346Z,24.60
2023-02-08T08:51:47.016Z,23.90
2023-02-08T08:52:46.971Z,21.50
2023-02-08T08:53:46.945Z,21.10
2023-02-08T08:54:46.909Z,22.70
2023-02-08T08:55:46.886Z,24.70
2023-02-08T08:56:46.863Z,20.80
2023-02-08T08:57:46.820Z,21.10
2023-02-08T08:58:46.792Z,22.80
2023-02-08T08:59:46.767Z,20.70
2023-02-08T09:00:46.736Z,21.00
2023-02-08T09:01:46.799Z,24.60
2023-02-08T09:02:46.674Z,22.90
2023-02-08T09:03:46.646Z,19.60
2023-02-08T09:04:46.631Z,19.80
2023-02-08T09:05:46.581Z,21.20
2023-02-08T09:06:46.552Z,22.50
2023-02-08T09:07:46.523Z,23.50
2023-02-08T09:08:46.492Z,21.10
2023-02-08T09:09:46.458Z,21.60
2023-02-08T09:10:46.431Z,21.50
2023-02-08T09:11:46.408Z,21.30
2023-02-08T09:12:46.415Z,20.10
2023-02-08T09:13:46.344Z,20.10
2023-02-08T09:14:46.318Z,21.20
2023-02-08T09:15:46.339Z,18.90
2023-02-08T09:16:46.258Z,20.40
2023-02-08T09:17:46.226Z,20.50
2023-02-08T09:18:46.199Z,20.40
2023-02-08T09:19:46.164Z,19.90
2023-02-08T09:20:46.427Z,19.80
2023-02-08T09:21:46.113Z,19.40
2023-02-08T09:22:46.077Z,20.00
2023-02-08T09:23:46.051Z,18.90
2023-02-08T09:24:46.017Z,22.80
2023-02-08T09:25:45.997Z,18.60
2023-02-08T09:26:45.961Z,18.00
2023-02-08T09:27:45.930Z,20.40
2023-02-08T09:28:45.912Z,18.90
2023-02-08T09:29:45.869Z,19.80
2023-02-08T09:30:46.200Z,19.00
2023-02-08T09:31:45.979Z,19.20
2023-02-08T09:32:45.780Z,18.60
2023-02-08T09:33:45.753Z,19.90
2023-02-08T09:34:45.723Z,17.80
2023-02-08T09:35:45.701Z,17.60
2023-02-08T09:36:45.690Z,16.80
2023-02-08T09:37:45.633Z,17.30
2023-02-08T09:38:45.604Z,16.20
2023-02-08T09:39:45.579Z,15.30
2023-02-08T09:40:45.584Z,15.00
2023-02-08T09:41:45.520Z,15.00
2023-02-08T09:42:45.490Z,14.50
2023-02-08T09:43:45.464Z,16.40
2023-02-08T09:44:45.437Z,15.70
2023-02-08T09:45:58.961Z,17.90
2023-02-08T09:46:45.403Z,15.20
2023-02-08T09:47:45.345Z,15.60
2023-02-08T09:48:45.316Z,16.20
2023-02-08T09:49:45.288Z,19.60
2023-02-08T09:50:45.373Z,16.80
2023-02-08T09:51:45.230Z,15.70
2023-02-08T09:52:45.276Z,14.90
2023-02-08T09:53:45.170Z,16.00
2023-02-08T09:54:45.136Z,15.00
2023-02-08T09:55:45.112Z,14.40
2023-02-08T09:56:45.080Z,13.20
2023-02-08T09:57:45.052Z,16.90
2023-02-08T09:58:45.027Z,14.10
2023-02-08T09:59:44.999Z,13.20
2023-02-08T10:00:45.287Z,14.20
2023-02-08T10:01:44.936Z,13.70
2023-02-08T10:02:44.914Z,15.30
2023-02-08T10:03:44.893Z,16.00
2023-02-08T10:04:44.849Z,14.50
2023-02-08T10:05:44.815Z,14.00
2023-02-08T10:06:44.792Z,14.50
2023-02-08T10:07:44.794Z,13.40
2023-02-08T10:08:44.838Z,14.30
2023-02-08T10:09:44.727Z,13.60
2023-02-08T10:10:45.038Z,15.30
2023-02-08T10:11:44.644Z,14.40
2023-02-08T10:12:44.648Z,14.10
2023-02-08T10:13:44.590Z,14.10
2023-02-08T10:14:44.561Z,14.80
2023-02-08T10:15:44.528Z,14.80
2023-02-08T10:16:44.509Z,14.50
2023-02-08T10:17:44.465Z,14.60
2023-02-08T10:18:44.439Z,14.20
2023-02-08T10:19:44.432Z,15.00
2023-02-08T10:20:44.620Z,14.30
2023-02-08T10:21:44.357Z,15.40
2023-02-08T10:22:44.322Z,13.70
2023-02-08T10:23:44.290Z,13.50
2023-02-08T10:24:44.315Z,14.60
2023-02-08T10:25:44.230Z,13.80
2023-02-08T10:26:44.236Z,14.40
2023-02-08T10:27:44.193Z,14.90
2023-02-08T10:28:44.156Z,16.80
2023-02-08T10:29:44.115Z,16.40
2023-02-08T10:30:44.540Z,12.70
2023-02-08T10:31:44.067Z,13.20
2023-02-08T10:32:44.030Z,13.40
2023-02-08T10:33:43.998Z,14.30
2023-02-08T10:34:43.974Z,15.30
2023-02-08T10:35:44.217Z,13.70
2023-02-08T10:36:43.916Z,13.60
2023-02-08T10:37:43.883Z,14.90
2023-02-08T10:38:46.654Z,13.50
2023-02-08T10:39:43.824Z,15.20
2023-02-08T10:40:44.158Z,13.30
2023-02-08T10:41:43.767Z,13.90
2023-02-08T10:42:43.740Z,15.00
2023-02-08T10:43:43.721Z,14.30
2023-02-08T10:44:43.714Z,14.10
2023-02-08T10:45:44.088Z,16.80
2023-02-08T10:46:43.626Z,14.20
2023-02-08T10:47:43.592Z,13.70
2023-02-08T10:48:43.569Z,12.90
2023-02-08T10:49:43.544Z,14.10
2023-02-08T10:50:43.525Z,13.10
2023-02-08T10:51:43.537Z,12.60
2023-02-08T10:52:43.461Z,12.80
2023-02-08T10:53:43.422Z,14.00
2023-02-08T10:54:43.400Z,13.90
2023-02-08T10:55:43.693Z,11.60
2023-02-08T10:56:43.362Z,12.80
2023-02-08T10:57:43.344Z,11.80
2023-02-08T10:58:43.282Z,13.40
2023-02-08T10:59:43.260Z,12.40
2023-02-08T11:00:43.231Z,11.10
2023-02-08T11:01:43.186Z,13.00
2023-02-08T11:02:43.181Z,11.20
2023-02-08T11:03:43.130Z,10.60
2023-02-08T11:04:43.108Z,12.40
2023-02-08T11:05:43.454Z,14.20
2023-02-08T11:06:43.044Z,11.70
2023-02-08T11:07:43.215Z,11.80
2023-02-08T11:08:42.990Z,11.30
2023-02-08T11:09:42.968Z,10.90
2023-02-08T11:10:42.932Z,11.60
2023-02-08T11:11:42.915Z,12.70
2023-02-08T11:12:43.012Z,10.60
2023-02-08T11:13:42.850Z,12.30
2023-02-08T11:14:47.224Z,12.20
2023-02-08T11:15:43.091Z,10.70
2023-02-08T11:16:42.812Z,11.80
2023-02-08T11:17:42.733Z,10.30
2023-02-08T11:18:42.733Z,10.80
2023-02-08T11:19:42.782Z,12.50
2023-02-08T11:20:42.656Z,11.90
2023-02-08T11:21:42.617Z,10.10
2023-02-08T11:22:42.594Z,10.60
2023-02-08T11:23:42.578Z,11.80
2023-02-08T11:24:42.539Z,10.20
2023-02-08T11:25:42.890Z,10.90
2023-02-08T11:26:42.477Z,10.70
2023-02-08T11:27:42.455Z,11.10
2023-02-08T11:28:42.446Z,9.50
2023-02-08T11:29:42.392Z,9.80
2023-02-08T11:30:42.376Z,11.50
2023-02-08T11:31:42.447Z,9.60
2023-02-08T11:32:42.333Z,9.80
2023-02-08T11:33:42.280Z,11.50
2023-02-08T11:34:42.253Z,12.30
2023-02-08T11:35:42.529Z,9.90
2023-02-08T11:36:42.201Z,8.80
2023-02-08T11:37:42.163Z,10.10
2023-02-08T11:38:42.149Z,9.10
2023-02-08T11:39:42.124Z,9.50
2023-02-08T11:40:42.094Z,8.80
2023-02-08T11:41:42.060Z,10.50
2023-02-08T11:42:42.029Z,9.90
2023-02-08T11:43:42.003Z,9.80
2023-02-08T11:44:42.023Z,9.70
2023-02-08T11:45:42.449Z,9.60
2023-02-08T11:46:41.924Z,8.40
2023-02-08T11:47:41.883Z,10.20
2023-02-08T11:48:41.852Z,8.90
2023-02-08T11:49:41.826Z,9.70
2023-02-08T11:50:41.798Z,8.70
2023-02-08T11:51:41.767Z,7.80
2023-02-08T11:52:41.743Z,9.30
2023-02-08T11:53:41.720Z,7.80
2023-02-08T11:54:41.694Z,8.90
2023-02-08T11:55:41.913Z,8.30
2023-02-08T11:56:41.630Z,8.90
2023-02-08T11:57:41.599Z,7.70
2023-02-08T11:58:41.577Z,9.00
2023-02-08T11:59:41.540Z,7.50
2023-02-08T12:00:41.551Z,7.70
2023-02-08T12:01:41.502Z,8.60
2023-02-08T12:02:41.470Z,8.50
2023-02-08T12:03:41.498Z,9.90
2023-02-08T12:04:41.406Z,9.50
2023-02-08T12:05:41.760Z,7.80
2023-02-08T12:06:41.347Z,8.70
2023-02-08T12:07:41.320Z,9.10
2023-02-08T12:08:41.295Z,9.40
2023-02-08T12:09:41.282Z,8.50
2023-02-08T12:10:41.236Z,8.60
2023-02-08T12:11:41.222Z,9.70
2023-02-08T12:12:41.182Z,9.90
2023-02-08T12:13:41.146Z,9.40
2023-02-08T12:14:41.120Z,11.20
2023-02-08T12:15:57.197Z,9.00
2023-02-08T12:16:41.231Z,8.70
2023-02-08T12:17:41.069Z,8.20
2023-02-08T12:18:41.010Z,8.90
2023-02-08T12:19:41.023Z,7.50
2023-02-08T12:20:40.985Z,7.30
2023-02-08T12:21:40.920Z,7.30
2023-02-08T12:22:40.895Z,9.50
2023-02-08T12:23:40.865Z,11.00
2023-02-08T12:24:40.843Z,11.20
2023-02-08T12:25:40.990Z,11.20
2023-02-08T12:26:40.788Z,11.90
2023-02-08T12:27:40.748Z,9.80
2023-02-08T12:28:40.728Z,9.20
2023-02-08T12:29:48.266Z,9.70
2023-02-08T12:30:40.780Z,10.10
2023-02-08T12:31:40.665Z,11.10
2023-02-08T12:32:40.660Z,11.20
2023-02-08T12:33:40.600Z,12.80
2023-02-08T12:34:40.604Z,10.60
2023-02-08T12:35:51.035Z,11.00
2023-02-08T12:36:40.500Z,10.90
2023-02-08T12:37:40.492Z,11.50
2023-02-08T12:38:40.442Z,10.80
2023-02-08T12:39:40.409Z,10.40
2023-02-08T12:40:40.388Z,11.40
2023-02-08T12:41:40.353Z,10.30
2023-02-08T12:42:40.330Z,10.30
2023-02-08T12:43:40.299Z,10.20
2023-02-08T12:44:40.276Z,12.00
2023-02-08T12:45:40.313Z,11.90
2023-02-08T12:46:40.220Z,11.30
2023-02-08T12:47:40.184Z,10.50
2023-02-08T12:48:40.180Z,11.80
2023-02-08T12:49:40.128Z,12.50
2023-02-08T12:50:40.105Z,11.10
2023-02-08T12:51:40.073Z,10.50
2023-02-08T12:52:40.046Z,11.30
2023-02-08T12:53:40.017Z,11.90
2023-02-08T12:54:40.001Z,10.80
2023-02-08T12:55:39.962Z,8.20